sensor_id;sensor_type;location;lat;lon;timestamp;pressure;altitude;pressure_sealevel;temperature;humidity
3434;BME280;1730;41.932;25.548;2022-10-18T00:01:03;100824.13;;;8.72;100.00
3434;BME280;1730;41.932;25.548;2022-10-18T00:03:30;100877.63;;;9.01;100.00
3434;BME280;1730;41.932;25.548;2022-10-18T00:05:56;100882.66;;;8.81;100.00
3434;BME280;1730;41.932;25.548;2022-10-18T00:08:21;100789.22;;;8.18;100.00
3434;BME280;1730;41.932;25.548;2022-10-18T00:10:47;100887.53;;;8.62;100.00
3434;BME280;1730;41.932;25.548;2022-10-18T00:13:13;100890.72;;;8.81;100.00
3434;BME280;1730;41.932;25.548;2022-10-18T00:15:38;100884.94;;;8.60;100.00
3434;BME280;1730;41.932;25.548;2022-10-18T00:18:04;100484.25;;;6.31;100.00
3434;BME280;1730;41.932;25.548;2022-10-18T00:20:29;100755.41;;;7.89;100.00
3434;BME280;1730;41.932;25.548;2022-10-18T00:22:55;100866.03;;;8.62;100.00
3434;BME280;1730;41.932;25.548;2022-10-18T00:25:21;100895.88;;;8.84;100.00
3434;BME280;1730;41.932;25.548;2022-10-18T00:27:46;100892.81;;;8.63;100.00
3434;BME280;1730;41.932;25.548;2022-10-18T00:30:13;100554.81;;;6.02;100.00
3434;BME280;1730;41.932;25.548;2022-10-18T00:32:41;100745.78;;;7.45;100.00
3434;BME280;1730;41.932;25.548;2022-10-18T00:35:07;100917.28;;;8.46;100.00
3434;BME280;1730;41.932;25.548;2022-10-18T00:37:33;100916.81;;;8.66;100.00
3434;BME280;1730;41.932;25.548;2022-10-18T00:39:59;100579.81;;;6.71;100.00
3434;BME280;1730;41.932;25.548;2022-10-18T00:42:33;100909.91;;;8.62;100.00
3434;BME280;1730;41.932;25.548;2022-10-18T00:47:39;100746.75;;;7.71;100.00
3434;BME280;1730;41.932;25.548;2022-10-18T00:50:06;100782.91;;;7.92;100.00
3434;BME280;1730;41.932;25.548;2022-10-18T00:52:53;100894.91;;;8.85;100.00
3434;BME280;1730;41.932;25.548;2022-10-18T00:55:19;100738.47;;;8.01;100.00
3434;BME280;1730;41.932;25.548;2022-10-18T00:57:46;100726.13;;;7.72;100.00
3434;BME280;1730;41.932;25.548;2022-10-18T01:00:12;100680.87;;;7.39;100.00
3434;BME280;1730;41.932;25.548;2022-10-18T01:02:40;100881.56;;;8.44;100.00
3434;BME280;1730;41.932;25.548;2022-10-18T01:05:07;100703.38;;;7.09;100.00
3434;BME280;1730;41.932;25.548;2022-10-18T01:07:52;100904.38;;;8.24;100.00
3434;BME280;1730;41.932;25.548;2022-10-18T01:16:42;100627.16;;;6.30;100.00
3434;BME280;1730;41.932;25.548;2022-10-18T01:22:22;100555.31;;;6.08;100.00
3434;BME280;1730;41.932;25.548;2022-10-18T01:27:52;100951.03;;;8.09;100.00
3434;BME280;1730;41.932;25.548;2022-10-18T01:33:32;100959.06;;;8.23;100.00
3434;BME280;1730;41.932;25.548;2022-10-18T01:36:22;100965.87;;;8.14;100.00
3434;BME280;1730;41.932;25.548;2022-10-18T01:38:52;100977.13;;;8.07;100.00
3434;BME280;1730;41.932;25.548;2022-10-18T01:41:21;100590.31;;;5.75;100.00
3434;BME280;1730;41.932;25.548;2022-10-18T01:43:51;100988.84;;;7.92;100.00
3434;BME280;1730;41.932;25.548;2022-10-18T01:46:22;100979.81;;;7.64;100.00
3434;BME280;1730;41.932;25.548;2022-10-18T01:48:50;101006.31;;;7.85;100.00
3434;BME280;1730;41.932;25.548;2022-10-18T01:51:25;101056.56;;;7.97;100.00
3434;BME280;1730;41.932;25.548;2022-10-18T01:53:50;101014.41;;;8.26;100.00
3434;BME280;1730;41.932;25.548;2022-10-18T01:59:21;100994.19;;;8.34;100.00
3434;BME280;1730;41.932;25.548;2022-10-18T02:04:53;101011.09;;;8.36;100.00
3434;BME280;1730;41.932;25.548;2022-10-18T02:07:35;100992.06;;;8.25;100.00
3434;BME280;1730;41.932;25.548;2022-10-18T02:10:07;100720.34;;;6.96;100.00
3434;BME280;1730;41.932;25.548;2022-10-18T02:12:36;100786.41;;;7.11;100.00
3434;BME280;1730;41.932;25.548;2022-10-18T02:15:05;100958.22;;;8.08;100.00
3434;BME280;1730;41.932;25.548;2022-10-18T02:17:32;100562.75;;;5.89;100.00
3434;BME280;1730;41.932;25.548;2022-10-18T02:19:58;100959.94;;;8.38;100.00
3434;BME280;1730;41.932;25.548;2022-10-18T02:22:28;100862.19;;;7.14;100.00
3434;BME280;1730;41.932;25.548;2022-10-18T02:24:57;100644.22;;;5.39;100.00
3434;BME280;1730;41.932;25.548;2022-10-18T02:27:24;100994.59;;;7.72;100.00
3434;BME280;1730;41.932;25.548;2022-10-18T02:29:50;100952.66;;;7.55;100.00
3434;BME280;1730;41.932;25.548;2022-10-18T02:32:26;101014.81;;;7.63;100.00
3434;BME280;1730;41.932;25.548;2022-10-18T02:34:59;101037.75;;;7.83;100.00
3434;BME280;1730;41.932;25.548;2022-10-18T02:37:31;101068.16;;;7.97;100.00
3434;BME280;1730;41.932;25.548;2022-10-18T02:40:00;101033.25;;;7.97;100.00
3434;BME280;1730;41.932;25.548;2022-10-18T02:42:32;101018.88;;;7.98;100.00
3434;BME280;1730;41.932;25.548;2022-10-18T02:44:58;100861.03;;;7.04;100.00
3434;BME280;1730;41.932;25.548;2022-10-18T02:47:24;101021.66;;;7.97;100.00
3434;BME280;1730;41.932;25.548;2022-10-18T02:49:49;100657.53;;;6.01;100.00
3434;BME280;1730;41.932;25.548;2022-10-18T02:52:15;101033.72;;;8.04;100.00
3434;BME280;1730;41.932;25.548;2022-10-18T02:54:40;100976.84;;;7.97;100.00
3434;BME280;1730;41.932;25.548;2022-10-18T02:57:06;100790.91;;;6.82;100.00
3434;BME280;1730;41.932;25.548;2022-10-18T02:59:31;100797.13;;;6.68;100.00
3434;BME280;1730;41.932;25.548;2022-10-18T03:01:57;101021.16;;;8.04;100.00
3434;BME280;1730;41.932;25.548;2022-10-18T03:04:22;100965.81;;;7.74;100.00
3434;BME280;1730;41.932;25.548;2022-10-18T03:06:48;100711.34;;;6.10;100.00
3434;BME280;1730;41.932;25.548;2022-10-18T03:09:13;101018.88;;;7.98;100.00
3434;BME280;1730;41.932;25.548;2022-10-18T03:11:39;101024.41;;;8.09;100.00
3434;BME280;1730;41.932;25.548;2022-10-18T03:14:04;100988.72;;;7.65;100.00
3434;BME280;1730;41.932;25.548;2022-10-18T03:16:30;100948.03;;;6.85;100.00
3434;BME280;1730;41.932;25.548;2022-10-18T03:18:55;100834.97;;;6.48;100.00
3434;BME280;1730;41.932;25.548;2022-10-18T03:21:21;101037.03;;;7.65;100.00
3434;BME280;1730;41.932;25.548;2022-10-18T03:23:46;101034.22;;;7.38;100.00
3434;BME280;1730;41.932;25.548;2022-10-18T03:26:12;100766.78;;;5.94;100.00
3434;BME280;1730;41.932;25.548;2022-10-18T03:28:37;101048.88;;;7.77;100.00
3434;BME280;1730;41.932;25.548;2022-10-18T03:31:03;101043.09;;;7.54;100.00
3434;BME280;1730;41.932;25.548;2022-10-18T03:33:30;100999.13;;;6.97;100.00
3434;BME280;1730;41.932;25.548;2022-10-18T03:35:56;101056.34;;;7.28;100.00
3434;BME280;1730;41.932;25.548;2022-10-18T03:38:21;101062.84;;;7.23;100.00
3434;BME280;1730;41.932;25.548;2022-10-18T03:40:47;101075.38;;;7.23;100.00
3434;BME280;1730;41.932;25.548;2022-10-18T03:43:13;101086.72;;;7.28;100.00
3434;BME280;1730;41.932;25.548;2022-10-18T03:45:39;101081.16;;;7.15;100.00
3434;BME280;1730;41.932;25.548;2022-10-18T03:48:05;100713.38;;;4.98;100.00
3434;BME280;1730;41.932;25.548;2022-10-18T03:50:30;101074.63;;;7.05;100.00
3434;BME280;1730;41.932;25.548;2022-10-18T03:52:56;101111.97;;;7.24;100.00
3434;BME280;1730;41.932;25.548;2022-10-18T03:55:21;100864.25;;;5.26;100.00
3434;BME280;1730;41.932;25.548;2022-10-18T03:57:47;100666.34;;;4.47;100.00
3434;BME280;1730;41.932;25.548;2022-10-18T04:00:13;100857.34;;;5.70;100.00
3434;BME280;1730;41.932;25.548;2022-10-18T04:02:38;101145.22;;;7.21;100.00
3434;BME280;1730;41.932;25.548;2022-10-18T04:05:04;101157.62;;;7.38;100.00
3434;BME280;1730;41.932;25.548;2022-10-18T04:07:32;101166.91;;;7.48;100.00
3434;BME280;1730;41.932;25.548;2022-10-18T04:09:58;101134.09;;;7.43;100.00
3434;BME280;1730;41.932;25.548;2022-10-18T04:12:23;101124.16;;;7.45;100.00
3434;BME280;1730;41.932;25.548;2022-10-18T04:14:49;101148.31;;;7.75;100.00
3434;BME280;1730;41.932;25.548;2022-10-18T04:17:14;101010.06;;;6.78;100.00
3434;BME280;1730;41.932;25.548;2022-10-18T04:19:40;101136.44;;;7.63;100.00
3434;BME280;1730;41.932;25.548;2022-10-18T04:22:06;101012.91;;;6.75;100.00
3434;BME280;1730;41.932;25.548;2022-10-18T04:24:32;100719.50;;;5.00;100.00
3434;BME280;1730;41.932;25.548;2022-10-18T04:26:57;100996.25;;;6.70;100.00
3434;BME280;1730;41.932;25.548;2022-10-18T04:29:23;100988.63;;;6.63;100.00
3434;BME280;1730;41.932;25.548;2022-10-18T04:31:48;101131.06;;;7.49;100.00
3434;BME280;1730;41.932;25.548;2022-10-18T04:34:15;101094.44;;;7.18;100.00
3434;BME280;1730;41.932;25.548;2022-10-18T04:36:40;101069.56;;;7.31;100.00
3434;BME280;1730;41.932;25.548;2022-10-18T04:39:06;101130.19;;;7.79;100.00
3434;BME280;1730;41.932;25.548;2022-10-18T04:41:31;101117.81;;;7.76;100.00
3434;BME280;1730;41.932;25.548;2022-10-18T04:43:57;101079.53;;;7.58;100.00
3434;BME280;1730;41.932;25.548;2022-10-18T04:46:22;101079.25;;;7.77;100.00
3434;BME280;1730;41.932;25.548;2022-10-18T04:48:48;100985.19;;;7.06;100.00
3434;BME280;1730;41.932;25.548;2022-10-18T04:51:13;100842.91;;;6.20;100.00
3434;BME280;1730;41.932;25.548;2022-10-18T04:53:38;101007.56;;;7.35;100.00
3434;BME280;1730;41.932;25.548;2022-10-18T04:56:04;101075.91;;;7.88;100.00
3434;BME280;1730;41.932;25.548;2022-10-18T04:58:30;100715.47;;;5.86;100.00
3434;BME280;1730;41.932;25.548;2022-10-18T05:00:55;100597.03;;;5.38;100.00
3434;BME280;1730;41.932;25.548;2022-10-18T05:03:21;100634.00;;;5.76;100.00
3434;BME280;1730;41.932;25.548;2022-10-18T05:05:46;101045.81;;;8.53;100.00
3434;BME280;1730;41.932;25.548;2022-10-18T05:08:13;101035.22;;;8.65;100.00
3434;BME280;1730;41.932;25.548;2022-10-18T05:10:39;100997.81;;;9.01;100.00
3434;BME280;1730;41.932;25.548;2022-10-18T05:13:04;100954.44;;;8.66;100.00
3434;BME280;1730;41.932;25.548;2022-10-18T05:15:30;100592.03;;;6.90;100.00
3434;BME280;1730;41.932;25.548;2022-10-18T05:17:55;100803.94;;;8.39;100.00
3434;BME280;1730;41.932;25.548;2022-10-18T05:20:20;100819.03;;;8.54;100.00
3434;BME280;1730;41.932;25.548;2022-10-18T05:22:46;100927.06;;;9.51;100.00
3434;BME280;1730;41.932;25.548;2022-10-18T05:25:11;100799.59;;;9.01;100.00
3434;BME280;1730;41.932;25.548;2022-10-18T05:27:37;100917.41;;;9.98;100.00
3434;BME280;1730;41.932;25.548;2022-10-18T05:30:03;100886.44;;;10.16;100.00
3434;BME280;1730;41.932;25.548;2022-10-18T05:32:29;100873.97;;;10.02;100.00
3434;BME280;1730;41.932;25.548;2022-10-18T05:34:54;100875.72;;;10.27;100.00
3434;BME280;1730;41.932;25.548;2022-10-18T05:37:20;100705.16;;;9.30;100.00
3434;BME280;1730;41.932;25.548;2022-10-18T05:39:46;100847.34;;;10.34;100.00
3434;BME280;1730;41.932;25.548;2022-10-18T05:42:13;100713.97;;;9.68;100.00
3434;BME280;1730;41.932;25.548;2022-10-18T05:44:38;100848.50;;;10.43;100.00
3434;BME280;1730;41.932;25.548;2022-10-18T05:47:04;100680.81;;;9.31;100.00
3434;BME280;1730;41.932;25.548;2022-10-18T05:49:29;100707.09;;;9.64;100.00
3434;BME280;1730;41.932;25.548;2022-10-18T05:51:55;100835.56;;;10.59;100.00
3434;BME280;1730;41.932;25.548;2022-10-18T05:54:20;100497.84;;;8.84;100.00
3434;BME280;1730;41.932;25.548;2022-10-18T05:56:46;100819.00;;;11.09;100.00
3434;BME280;1730;41.932;25.548;2022-10-18T05:59:11;100823.78;;;11.06;100.00
3434;BME280;1730;41.932;25.548;2022-10-18T06:01:38;100825.91;;;11.36;100.00
3434;BME280;1730;41.932;25.548;2022-10-18T06:04:04;100408.22;;;9.18;100.00
3434;BME280;1730;41.932;25.548;2022-10-18T06:06:32;100826.87;;;11.68;100.00
3434;BME280;1730;41.932;25.548;2022-10-18T06:08:58;100515.56;;;10.02;100.00
3434;BME280;1730;41.932;25.548;2022-10-18T06:11:24;100797.50;;;11.97;100.00
3434;BME280;1730;41.932;25.548;2022-10-18T06:13:51;100785.28;;;12.13;100.00
3434;BME280;1730;41.932;25.548;2022-10-18T06:16:18;100788.47;;;12.18;100.00
3434;BME280;1730;41.932;25.548;2022-10-18T06:18:52;100783.94;;;12.40;100.00
3434;BME280;1730;41.932;25.548;2022-10-18T06:21:18;100777.88;;;12.47;100.00
3434;BME280;1730;41.932;25.548;2022-10-18T06:23:52;100456.16;;;10.91;100.00
3434;BME280;1730;41.932;25.548;2022-10-18T06:26:18;100618.94;;;11.98;100.00
3434;BME280;1730;41.932;25.548;2022-10-18T06:28:47;100762.75;;;13.07;100.00
3434;BME280;1730;41.932;25.548;2022-10-18T06:31:13;100656.12;;;12.47;100.00
3434;BME280;1730;41.932;25.548;2022-10-18T06:33:40;100491.94;;;11.78;100.00
3434;BME280;1730;41.932;25.548;2022-10-18T06:36:10;100746.63;;;13.76;100.00
3434;BME280;1730;41.932;25.548;2022-10-18T06:38:35;100744.38;;;14.10;100.00
3434;BME280;1730;41.932;25.548;2022-10-18T06:41:02;100746.13;;;14.20;100.00
3434;BME280;1730;41.932;25.548;2022-10-18T06:43:27;100612.78;;;13.58;100.00
3434;BME280;1730;41.932;25.548;2022-10-18T06:45:53;100733.41;;;14.50;100.00
3434;BME280;1730;41.932;25.548;2022-10-18T06:48:20;100589.25;;;13.77;100.00
3434;BME280;1730;41.932;25.548;2022-10-18T06:50:56;100731.91;;;14.84;100.00
3434;BME280;1730;41.932;25.548;2022-10-18T06:53:27;100685.22;;;14.61;100.00
3434;BME280;1730;41.932;25.548;2022-10-18T06:56:01;100615.00;;;14.29;100.00
3434;BME280;1730;41.932;25.548;2022-10-18T06:58:28;100719.63;;;14.89;100.00
3434;BME280;1730;41.932;25.548;2022-10-18T07:00:54;100422.94;;;13.49;100.00
3434;BME280;1730;41.932;25.548;2022-10-18T07:03:20;100572.28;;;14.31;100.00
3434;BME280;1730;41.932;25.548;2022-10-18T07:05:47;100664.53;;;14.97;100.00
3434;BME280;1730;41.932;25.548;2022-10-18T07:08:13;100705.50;;;15.41;100.00
3434;BME280;1730;41.932;25.548;2022-10-18T07:10:51;100725.03;;;15.63;100.00
3434;BME280;1730;41.932;25.548;2022-10-18T07:13:17;100701.50;;;15.72;100.00
3434;BME280;1730;41.932;25.548;2022-10-18T07:15:43;100706.47;;;15.49;100.00
3434;BME280;1730;41.932;25.548;2022-10-18T07:18:08;100681.78;;;15.43;100.00
3434;BME280;1730;41.932;25.548;2022-10-18T07:20:34;100601.59;;;14.74;100.00
3434;BME280;1730;41.932;25.548;2022-10-18T07:22:59;100493.97;;;14.09;100.00
3434;BME280;1730;41.932;25.548;2022-10-18T07:25:25;100708.37;;;15.94;100.00
3434;BME280;1730;41.932;25.548;2022-10-18T07:27:51;100417.22;;;14.26;100.00
3434;BME280;1730;41.932;25.548;2022-10-18T07:30:17;100699.16;;;15.59;100.00
3434;BME280;1730;41.932;25.548;2022-10-18T07:32:42;100514.31;;;14.32;100.00
3434;BME280;1730;41.932;25.548;2022-10-18T07:35:08;100457.59;;;14.66;100.00
3434;BME280;1730;41.932;25.548;2022-10-18T07:37:33;100519.50;;;15.08;100.00
3434;BME280;1730;41.932;25.548;2022-10-18T07:39:59;100688.28;;;16.48;100.00
3434;BME280;1730;41.932;25.548;2022-10-18T07:42:24;100677.37;;;16.65;100.00
3434;BME280;1730;41.932;25.548;2022-10-18T07:44:51;100459.28;;;14.95;100.00
3434;BME280;1730;41.932;25.548;2022-10-18T07:47:17;100584.56;;;15.72;100.00
3434;BME280;1730;41.932;25.548;2022-10-18T07:49:42;100673.66;;;16.49;100.00
3434;BME280;1730;41.932;25.548;2022-10-18T07:52:09;100343.34;;;14.95;100.00
3434;BME280;1730;41.932;25.548;2022-10-18T07:54:35;100661.06;;;16.74;100.00
3434;BME280;1730;41.932;25.548;2022-10-18T07:57:03;100662.12;;;17.06;100.00
3434;BME280;1730;41.932;25.548;2022-10-18T07:59:28;100489.09;;;16.01;100.00
3434;BME280;1730;41.932;25.548;2022-10-18T08:01:54;100659.25;;;17.16;100.00
3434;BME280;1730;41.932;25.548;2022-10-18T08:04:19;100527.28;;;15.91;100.00
3434;BME280;1730;41.932;25.548;2022-10-18T08:06:45;100650.56;;;16.79;100.00
3434;BME280;1730;41.932;25.548;2022-10-18T08:09:11;100367.00;;;15.72;100.00
3434;BME280;1730;41.932;25.548;2022-10-18T08:11:37;100664.84;;;17.48;100.00
3434;BME280;1730;41.932;25.548;2022-10-18T08:14:03;100633.97;;;17.48;100.00
3434;BME280;1730;41.932;25.548;2022-10-18T08:16:28;100596.50;;;16.66;100.00
3434;BME280;1730;41.932;25.548;2022-10-18T08:18:58;100639.84;;;17.61;100.00
3434;BME280;1730;41.932;25.548;2022-10-18T08:21:24;100356.00;;;16.23;100.00
3434;BME280;1730;41.932;25.548;2022-10-18T08:23:50;100348.97;;;16.05;100.00
3434;BME280;1730;41.932;25.548;2022-10-18T08:26:19;100613.16;;;17.39;100.00
3434;BME280;1730;41.932;25.548;2022-10-18T08:28:45;100499.56;;;16.89;100.00
3434;BME280;1730;41.932;25.548;2022-10-18T08:31:21;100607.16;;;18.01;100.00
3434;BME280;1730;41.932;25.548;2022-10-18T08:33:46;100608.66;;;17.72;100.00
3434;BME280;1730;41.932;25.548;2022-10-18T08:36:14;100605.38;;;17.60;100.00
3434;BME280;1730;41.932;25.548;2022-10-18T08:38:41;100596.56;;;18.07;100.00
3434;BME280;1730;41.932;25.548;2022-10-18T08:41:41;100647.94;;;18.11;100.00
3434;BME280;1730;41.932;25.548;2022-10-18T08:44:20;100363.84;;;16.85;100.00
3434;BME280;1730;41.932;25.548;2022-10-18T08:46:49;100591.44;;;18.28;98.78
3434;BME280;1730;41.932;25.548;2022-10-18T08:51:57;100593.81;;;18.55;98.05
3434;BME280;1730;41.932;25.548;2022-10-18T08:54:34;100453.63;;;17.91;95.10
3434;BME280;1730;41.932;25.548;2022-10-18T08:57:04;100566.47;;;18.63;89.95
3434;BME280;1730;41.932;25.548;2022-10-18T08:59:40;100559.53;;;18.83;81.39
3434;BME280;1730;41.932;25.548;2022-10-18T09:07:48;100582.63;;;19.20;79.55
3434;BME280;1730;41.932;25.548;2022-10-18T09:13:37;100553.19;;;19.22;77.28
3434;BME280;1730;41.932;25.548;2022-10-18T09:16:14;100271.13;;;17.41;76.58
3434;BME280;1730;41.932;25.548;2022-10-18T09:21:54;100572.13;;;19.31;76.13
3434;BME280;1730;41.932;25.548;2022-10-18T09:27:34;100337.41;;;17.42;80.48
3434;BME280;1730;41.932;25.548;2022-10-18T09:30:15;100541.78;;;19.72;74.49
3434;BME280;1730;41.932;25.548;2022-10-18T09:36:32;99814.41;;;14.81;79.16
3434;BME280;1730;41.932;25.548;2022-10-18T09:41:38;100514.34;;;19.57;78.14
3434;BME280;1730;41.932;25.548;2022-10-18T09:50:24;100517.94;;;20.18;70.11
3434;BME280;1730;41.932;25.548;2022-10-18T09:55:35;100361.97;;;19.35;66.48
3434;BME280;1730;41.932;25.548;2022-10-18T09:58:06;100481.53;;;19.95;64.85
3434;BME280;1730;41.932;25.548;2022-10-18T10:00:49;99906.41;;;16.36;68.87
3434;BME280;1730;41.932;25.548;2022-10-18T10:03:26;100471.00;;;19.69;69.48
3434;BME280;1730;41.932;25.548;2022-10-18T10:08:36;100480.22;;;19.68;69.46
3434;BME280;1730;41.932;25.548;2022-10-18T10:11:46;100451.22;;;19.59;65.24
3434;BME280;1730;41.932;25.548;2022-10-18T10:17:04;100448.78;;;19.41;65.11
3434;BME280;1730;41.932;25.548;2022-10-18T10:19:39;100071.63;;;17.52;69.87
3434;BME280;1730;41.932;25.548;2022-10-18T10:22:26;100432.06;;;19.36;59.81
3434;BME280;1730;41.932;25.548;2022-10-18T10:24:56;100435.84;;;19.58;60.58
3434;BME280;1730;41.932;25.548;2022-10-18T10:27:31;100433.84;;;20.04;55.50
3434;BME280;1730;41.932;25.548;2022-10-18T10:29:59;100420.03;;;19.97;56.95
3434;BME280;1730;41.932;25.548;2022-10-18T10:32:28;100413.00;;;20.32;57.98
3434;BME280;1730;41.932;25.548;2022-10-18T10:34:54;100430.25;;;19.74;55.19
3434;BME280;1730;41.932;25.548;2022-10-18T10:37:28;100427.69;;;20.02;54.19
3434;BME280;1730;41.932;25.548;2022-10-18T10:42:29;100427.53;;;20.03;55.04
3434;BME280;1730;41.932;25.548;2022-10-18T10:44:56;100385.50;;;20.40;54.40
3434;BME280;1730;41.932;25.548;2022-10-18T10:47:27;99965.47;;;17.74;53.83
3434;BME280;1730;41.932;25.548;2022-10-18T10:49:56;100375.19;;;20.42;52.39
3434;BME280;1730;41.932;25.548;2022-10-18T10:52:23;100120.75;;;19.10;53.63
3434;BME280;1730;41.932;25.548;2022-10-18T10:54:52;100380.72;;;20.63;53.19
3434;BME280;1730;41.932;25.548;2022-10-18T10:57:30;100390.34;;;20.74;53.04
3434;BME280;1730;41.932;25.548;2022-10-18T11:00:35;100187.66;;;19.88;51.53
3434;BME280;1730;41.932;25.548;2022-10-18T11:03:10;100082.56;;;18.87;51.32
3434;BME280;1730;41.932;25.548;2022-10-18T11:05:45;100354.47;;;20.76;50.18
3434;BME280;1730;41.932;25.548;2022-10-18T11:08:15;100333.38;;;20.55;51.40
3434;BME280;1730;41.932;25.548;2022-10-18T11:22:01;100328.72;;;20.70;56.33
3434;BME280;1730;41.932;25.548;2022-10-18T11:27:34;100315.88;;;21.13;55.11
3434;BME280;1730;41.932;25.548;2022-10-18T11:30:31;100310.88;;;20.59;56.66
3434;BME280;1730;41.932;25.548;2022-10-18T11:43:52;100281.09;;;21.48;50.81
3434;BME280;1730;41.932;25.548;2022-10-18T11:55:42;100322.06;;;20.79;52.41
3434;BME280;1730;41.932;25.548;2022-10-18T12:01:31;100301.41;;;21.04;50.25
3434;BME280;1730;41.932;25.548;2022-10-18T12:06:40;100314.22;;;22.09;47.12
3434;BME280;1730;41.932;25.548;2022-10-18T12:09:31;100245.72;;;21.04;48.13
3434;BME280;1730;41.932;25.548;2022-10-18T12:12:08;100291.22;;;21.20;47.60
3434;BME280;1730;41.932;25.548;2022-10-18T12:14:56;100237.66;;;21.24;48.12
3434;BME280;1730;41.932;25.548;2022-10-18T12:17:46;100283.19;;;21.46;46.95
3434;BME280;1730;41.932;25.548;2022-10-18T12:20:24;100227.66;;;21.85;46.04
3434;BME280;1730;41.932;25.548;2022-10-18T12:23:11;100247.75;;;21.92;45.86
3434;BME280;1730;41.932;25.548;2022-10-18T12:25:51;100232.53;;;21.89;45.52
3434;BME280;1730;41.932;25.548;2022-10-18T12:31:13;100240.81;;;21.96;45.66
3434;BME280;1730;41.932;25.548;2022-10-18T12:33:45;100226.09;;;22.10;45.35
3434;BME280;1730;41.932;25.548;2022-10-18T12:38:59;100254.00;;;22.07;46.21
3434;BME280;1730;41.932;25.548;2022-10-18T12:41:33;100237.91;;;22.04;46.52
3434;BME280;1730;41.932;25.548;2022-10-18T12:44:04;100218.72;;;21.70;46.06
3434;BME280;1730;41.932;25.548;2022-10-18T12:46:43;100211.94;;;22.07;46.31
3434;BME280;1730;41.932;25.548;2022-10-18T12:49:17;100280.47;;;21.87;46.79
3434;BME280;1730;41.932;25.548;2022-10-18T12:52:06;100079.50;;;20.75;47.36
3434;BME280;1730;41.932;25.548;2022-10-18T13:13:56;100177.34;;;21.71;43.51
3434;BME280;1730;41.932;25.548;2022-10-18T13:16:41;100171.38;;;21.61;42.84
3434;BME280;1730;41.932;25.548;2022-10-18T13:22:19;100155.59;;;21.83;41.98
3434;BME280;1730;41.932;25.548;2022-10-18T13:34:41;100130.62;;;21.65;43.06
3434;BME280;1730;41.932;25.548;2022-10-18T13:39:36;100153.22;;;21.67;42.49
3434;BME280;1730;41.932;25.548;2022-10-18T14:13:27;100116.59;;;21.40;41.87
3434;BME280;1730;41.932;25.548;2022-10-18T14:16:03;100108.13;;;21.35;42.27
3434;BME280;1730;41.932;25.548;2022-10-18T14:18:31;100035.91;;;20.87;42.32
3434;BME280;1730;41.932;25.548;2022-10-18T14:21:17;100103.66;;;21.27;44.21
3434;BME280;1730;41.932;25.548;2022-10-18T14:23:45;100097.16;;;21.35;47.46
3434;BME280;1730;41.932;25.548;2022-10-18T14:26:17;100090.50;;;21.16;48.79
3434;BME280;1730;41.932;25.548;2022-10-18T14:28:44;100099.75;;;21.49;49.00
3434;BME280;1730;41.932;25.548;2022-10-18T14:31:14;100092.78;;;21.06;52.66
3434;BME280;1730;41.932;25.548;2022-10-18T14:33:52;100087.78;;;21.16;52.83
3434;BME280;1730;41.932;25.548;2022-10-18T14:43:47;100089.50;;;20.89;56.39
3434;BME280;1730;41.932;25.548;2022-10-18T14:46:31;100080.81;;;20.79;56.99
3434;BME280;1730;41.932;25.548;2022-10-18T14:49:03;100046.87;;;20.52;55.25
3434;BME280;1730;41.932;25.548;2022-10-18T14:51:33;100082.25;;;20.75;55.67
3434;BME280;1730;41.932;25.548;2022-10-18T14:54:00;99975.34;;;19.85;56.27
3434;BME280;1730;41.932;25.548;2022-10-18T14:56:28;100106.25;;;20.45;57.43
3434;BME280;1730;41.932;25.548;2022-10-18T14:58:57;99853.91;;;18.95;59.40
3434;BME280;1730;41.932;25.548;2022-10-18T15:01:30;100072.81;;;20.29;58.00
3434;BME280;1730;41.932;25.548;2022-10-18T15:04:08;99916.41;;;19.19;59.59
3434;BME280;1730;41.932;25.548;2022-10-18T15:06:34;100062.66;;;20.22;59.01
3434;BME280;1730;41.932;25.548;2022-10-18T15:09:02;99853.53;;;18.98;58.94
3434;BME280;1730;41.932;25.548;2022-10-18T15:11:32;100064.03;;;20.12;60.26
3434;BME280;1730;41.932;25.548;2022-10-18T15:14:02;99921.00;;;19.18;61.24
3434;BME280;1730;41.932;25.548;2022-10-18T15:16:32;100065.41;;;20.01;62.12
3434;BME280;1730;41.932;25.548;2022-10-18T15:21:54;100080.06;;;19.72;65.39
3434;BME280;1730;41.932;25.548;2022-10-18T15:24:29;100056.44;;;19.65;66.97
3434;BME280;1730;41.932;25.548;2022-10-18T15:26:59;99753.41;;;17.82;67.24
3434;BME280;1730;41.932;25.548;2022-10-18T15:29:30;100054.41;;;19.37;70.45
3434;BME280;1730;41.932;25.548;2022-10-18T15:32:10;100087.19;;;19.16;73.62
3434;BME280;1730;41.932;25.548;2022-10-18T15:34:54;100050.16;;;18.99;78.21
3434;BME280;1730;41.932;25.548;2022-10-18T15:37:41;100048.28;;;18.85;80.68
3434;BME280;1730;41.932;25.548;2022-10-18T15:42:43;100045.31;;;18.42;90.34
3434;BME280;1730;41.932;25.548;2022-10-18T15:45:39;100038.69;;;18.22;96.19
3434;BME280;1730;41.932;25.548;2022-10-18T15:50:56;100014.53;;;17.59;100.00
3434;BME280;1730;41.932;25.548;2022-10-18T15:58:41;100065.34;;;17.52;100.00
3434;BME280;1730;41.932;25.548;2022-10-18T16:01:33;99740.59;;;15.65;100.00
3434;BME280;1730;41.932;25.548;2022-10-18T16:04:30;99969.97;;;16.51;100.00
3434;BME280;1730;41.932;25.548;2022-10-18T16:06:59;99449.09;;;13.28;100.00
3434;BME280;1730;41.932;25.548;2022-10-18T16:09:39;99915.94;;;16.24;100.00
3434;BME280;1730;41.932;25.548;2022-10-18T16:13:12;100071.75;;;17.05;100.00
3434;BME280;1730;41.932;25.548;2022-10-18T16:15:37;99913.47;;;16.06;100.00
3434;BME280;1730;41.932;25.548;2022-10-18T16:18:03;100056.81;;;16.85;100.00
3434;BME280;1730;41.932;25.548;2022-10-18T16:20:28;100054.34;;;16.76;100.00
3434;BME280;1730;41.932;25.548;2022-10-18T16:22:54;100056.41;;;16.65;100.00
3434;BME280;1730;41.932;25.548;2022-10-18T16:25:19;100059.12;;;16.41;100.00
3434;BME280;1730;41.932;25.548;2022-10-18T16:27:45;100055.06;;;16.37;100.00
3434;BME280;1730;41.932;25.548;2022-10-18T16:30:17;100096.28;;;16.26;100.00